This is the latest recevied weather packets stored in our database for station/object S51DM-10. If no packets are shown the sender has not sent any weather packets the latest 1 day(s).
| Time | Temp. | Humidity | Pressure | Rain* | Wind** | Luminosity | Snow |
|---|---|---|---|---|---|---|---|
| 1778088905 | 21.67° C | 48% | 1011.3 hPa | - | - | - | - |
| 1778088004 | 22.78° C | 46% | 1011.3 hPa | - | - | - | - |
| 1778083500 | 22.78° C | 47% | 1011.6 hPa | - | - | - | - |
| 1778082599 | 23.33° C | 46% | 1011.8 hPa | - | - | - | - |
| 1778081698 | 25° C | 43% | 1011.5 hPa | - | - | - | - |
| 1778078995 | 26.67° C | 39% | 1011.8 hPa | - | - | - | - |
| 1778078094 | 27.78° C | 38% | 1011.7 hPa | - | - | - | - |
| 1778073590 | 28.89° C | 37% | 1012.5 hPa | - | - | - | - |
| 1778072689 | 27.78° C | 38% | 1012.6 hPa | - | - | - | - |
| 1778068185 | 27.22° C | 37% | 1012.9 hPa | - | - | - | - |
| 1778067284 | 35° C | 28% | 1013 hPa | - | - | - | - |
| 1778066383 | 35.56° C | 28% | 1013 hPa | - | - | - | - |
| 1778061879 | 25.56° C | 45% | 1013.6 hPa | - | - | - | - |
| 1778060978 | 25° C | 47% | 1013.5 hPa | - | - | - | - |
| 1778059176 | 23.33° C | 49% | 1013.4 hPa | - | - | - | - |
| 1778058275 | 22.78° C | 49% | 1013.3 hPa | - | - | - | - |
| 1778057374 | 23.89° C | 48% | 1013.2 hPa | - | - | - | - |
| 1778056473 | 23.33° C | 49% | 1013.2 hPa | - | - | - | - |
| 1778053771 | 21.67° C | 53% | 1013.1 hPa | - | - | - | - |
| 1778052870 | 21.11° C | 55% | 1013.1 hPa | - | - | - | - |
| 1778051969 | 20.56° C | 55% | 1013 hPa | - | - | - | - |
| 1778051068 | 20° C | 57% | 1013.1 hPa | - | - | - | - |
| 1778050167 | 20° C | 57% | 1013 hPa | - | - | - | - |
| 1778047465 | 18.89° C | 59% | 1012.8 hPa | - | - | - | - |
| 1778046564 | 18.89° C | 61% | 1013.1 hPa | - | - | - | - |
* Rain since midnight (hover to see other rain measurements)
** Current wind speed in m/s (hover to see current wind gust speed)